sensor_id;sensor_type;location;lat;lon;timestamp;pressure;altitude;pressure_sealevel;temperature;humidity
65557;BME280;52200;53.490;14.376;2023-03-25T00:01:54;100000.97;;;7.54;85.86
65557;BME280;52200;53.490;14.376;2023-03-25T00:04:20;99995.63;;;7.32;86.54
65557;BME280;52200;53.490;14.376;2023-03-25T00:06:45;99993.66;;;7.43;86.95
65557;BME280;52200;53.490;14.376;2023-03-25T00:09:11;99998.63;;;7.47;86.60
65557;BME280;52200;53.490;14.376;2023-03-25T00:11:36;99993.50;;;7.50;86.01
65557;BME280;52200;53.490;14.376;2023-03-25T00:14:01;99998.78;;;7.40;86.70
65557;BME280;52200;53.490;14.376;2023-03-25T00:16:27;100005.81;;;7.29;87.05
65557;BME280;52200;53.490;14.376;2023-03-25T00:18:52;100003.84;;;7.40;86.35
65557;BME280;52200;53.490;14.376;2023-03-25T00:21:18;100005.50;;;7.41;86.26
65557;BME280;52200;53.490;14.376;2023-03-25T00:23:43;99999.16;;;7.25;87.25
65557;BME280;52200;53.490;14.376;2023-03-25T00:26:09;100007.47;;;7.30;87.72
65557;BME280;52200;53.490;14.376;2023-03-25T00:28:36;100002.59;;;7.24;87.18
65557;BME280;52200;53.490;14.376;2023-03-25T00:31:11;100015.28;;;7.21;87.87
65557;BME280;52200;53.490;14.376;2023-03-25T00:33:37;100017.81;;;7.21;88.42
65557;BME280;52200;53.490;14.376;2023-03-25T00:36:06;100016.94;;;7.22;88.10
65557;BME280;52200;53.490;14.376;2023-03-25T00:38:33;100016.69;;;7.31;88.00
65557;BME280;52200;53.490;14.376;2023-03-25T00:41:18;100014.63;;;7.13;88.83
65557;BME280;52200;53.490;14.376;2023-03-25T00:43:48;100000.59;;;7.01;88.83
65557;BME280;52200;53.490;14.376;2023-03-25T00:46:14;100022.38;;;7.05;88.66
65557;BME280;52200;53.490;14.376;2023-03-25T00:48:40;100015.06;;;6.94;89.07
65557;BME280;52200;53.490;14.376;2023-03-25T00:51:06;100018.38;;;6.96;89.53
65557;BME280;52200;53.490;14.376;2023-03-25T00:53:35;100022.06;;;7.19;89.06
65557;BME280;52200;53.490;14.376;2023-03-25T00:56:01;100017.19;;;7.11;88.57
65557;BME280;52200;53.490;14.376;2023-03-25T00:58:27;100016.00;;;6.90;89.09
65557;BME280;52200;53.490;14.376;2023-03-25T01:00:52;100020.25;;;6.88;89.58
65557;BME280;52200;53.490;14.376;2023-03-25T01:03:24;100019.47;;;6.84;90.43
65557;BME280;52200;53.490;14.376;2023-03-25T01:05:50;100016.66;;;6.98;90.15
65557;BME280;52200;53.490;14.376;2023-03-25T01:08:19;100016.72;;;6.95;90.26
65557;BME280;52200;53.490;14.376;2023-03-25T01:10:51;100013.13;;;7.05;89.67
65557;BME280;52200;53.490;14.376;2023-03-25T01:13:17;100014.09;;;7.00;89.52
65557;BME280;52200;53.490;14.376;2023-03-25T01:15:42;100012.81;;;6.83;90.59
65557;BME280;52200;53.490;14.376;2023-03-25T01:18:07;100014.78;;;6.69;91.63
65557;BME280;52200;53.490;14.376;2023-03-25T01:20:33;100013.69;;;6.81;91.63
65557;BME280;52200;53.490;14.376;2023-03-25T01:22:58;100012.03;;;6.80;91.21
65557;BME280;52200;53.490;14.376;2023-03-25T01:25:23;100012.06;;;6.78;91.19
65557;BME280;52200;53.490;14.376;2023-03-25T01:27:49;100013.84;;;6.74;91.08
65557;BME280;52200;53.490;14.376;2023-03-25T01:30:14;100005.28;;;6.80;91.30
65557;BME280;52200;53.490;14.376;2023-03-25T01:32:40;100005.09;;;6.89;90.96
65557;BME280;52200;53.490;14.376;2023-03-25T01:35:05;100003.53;;;6.84;91.58
65557;BME280;52200;53.490;14.376;2023-03-25T01:37:31;99996.66;;;6.89;91.88
65557;BME280;52200;53.490;14.376;2023-03-25T01:39:58;100004.97;;;6.94;90.94
65557;BME280;52200;53.490;14.376;2023-03-25T01:42:23;100004.91;;;6.97;91.80
65557;BME280;52200;53.490;14.376;2023-03-25T01:47:17;100005.03;;;6.91;92.13
65557;BME280;52200;53.490;14.376;2023-03-25T01:49:44;99997.22;;;7.02;90.78
65557;BME280;52200;53.490;14.376;2023-03-25T01:52:14;100002.13;;;7.08;91.02
65557;BME280;52200;53.490;14.376;2023-03-25T01:54:42;100011.75;;;6.92;92.26
65557;BME280;52200;53.490;14.376;2023-03-25T01:57:09;100007.19;;;7.08;91.40
65557;BME280;52200;53.490;14.376;2023-03-25T01:59:37;100007.41;;;6.97;91.46
65557;BME280;52200;53.490;14.376;2023-03-25T02:02:04;100007.94;;;7.12;90.66
65557;BME280;52200;53.490;14.376;2023-03-25T02:04:36;100008.28;;;6.96;91.64
65557;BME280;52200;53.490;14.376;2023-03-25T02:07:06;100011.75;;;6.92;91.91
65557;BME280;52200;53.490;14.376;2023-03-25T02:09:35;100001.44;;;7.01;90.78
65557;BME280;52200;53.490;14.376;2023-03-25T02:12:01;100008.13;;;7.02;91.29
65557;BME280;52200;53.490;14.376;2023-03-25T02:14:30;100008.94;;;7.04;90.88
65557;BME280;52200;53.490;14.376;2023-03-25T02:24:57;100014.13;;;6.62;93.08
65557;BME280;52200;53.490;14.376;2023-03-25T02:27:43;100010.22;;;6.47;93.30
65557;BME280;52200;53.490;14.376;2023-03-25T02:33:36;100010.91;;;6.54;93.26
65557;BME280;52200;53.490;14.376;2023-03-25T02:36:23;100009.97;;;6.58;92.94
65557;BME280;52200;53.490;14.376;2023-03-25T02:39:11;100001.09;;;6.81;93.31
65557;BME280;52200;53.490;14.376;2023-03-25T02:41:40;99994.50;;;7.09;92.05
65557;BME280;52200;53.490;14.376;2023-03-25T02:47:09;99992.22;;;6.99;92.68
65557;BME280;52200;53.490;14.376;2023-03-25T02:49:42;99989.47;;;6.73;93.30
65557;BME280;52200;53.490;14.376;2023-03-25T02:52:19;99984.91;;;6.88;93.24
65557;BME280;52200;53.490;14.376;2023-03-25T02:54:49;99991.56;;;6.92;92.85
65557;BME280;52200;53.490;14.376;2023-03-25T02:57:18;99982.75;;;7.08;92.22
65557;BME280;52200;53.490;14.376;2023-03-25T02:59:46;99973.91;;;7.25;90.92
65557;BME280;52200;53.490;14.376;2023-03-25T03:02:12;99967.69;;;7.05;92.22
65557;BME280;52200;53.490;14.376;2023-03-25T03:04:51;99968.00;;;7.26;90.97
65557;BME280;52200;53.490;14.376;2023-03-25T03:07:37;99977.81;;;7.37;91.00
65557;BME280;52200;53.490;14.376;2023-03-25T03:18:27;99964.84;;;6.82;92.87
65557;BME280;52200;53.490;14.376;2023-03-25T03:21:12;99958.25;;;7.12;91.71
65557;BME280;52200;53.490;14.376;2023-03-25T03:23:59;99960.31;;;6.96;91.08
65557;BME280;52200;53.490;14.376;2023-03-25T03:27:09;99954.03;;;6.76;92.35
65557;BME280;52200;53.490;14.376;2023-03-25T03:29:33;99955.50;;;6.85;92.32
65557;BME280;52200;53.490;14.376;2023-03-25T03:32:06;99957.25;;;6.83;92.32
65557;BME280;52200;53.490;14.376;2023-03-25T03:37:13;99962.97;;;6.90;92.58
65557;BME280;52200;53.490;14.376;2023-03-25T03:39:40;99953.91;;;6.83;93.10
65557;BME280;52200;53.490;14.376;2023-03-25T03:42:12;99958.09;;;6.84;93.32
65557;BME280;52200;53.490;14.376;2023-03-25T03:44:43;99956.22;;;6.92;93.04
65557;BME280;52200;53.490;14.376;2023-03-25T03:47:14;99947.84;;;6.90;93.05
65557;BME280;52200;53.490;14.376;2023-03-25T03:49:46;99946.03;;;6.95;93.11
65557;BME280;52200;53.490;14.376;2023-03-25T03:52:20;99942.44;;;7.04;93.39
65557;BME280;52200;53.490;14.376;2023-03-25T03:55:19;99943.59;;;7.25;91.73
65557;BME280;52200;53.490;14.376;2023-03-25T03:57:59;99949.25;;;7.35;91.16
65557;BME280;52200;53.490;14.376;2023-03-25T04:00:32;99939.88;;;7.38;91.06
65557;BME280;52200;53.490;14.376;2023-03-25T04:03:23;99936.84;;;7.25;91.01
65557;BME280;52200;53.490;14.376;2023-03-25T04:06:00;99934.59;;;7.48;90.49
65557;BME280;52200;53.490;14.376;2023-03-25T04:09:04;99935.34;;;7.18;91.28
65557;BME280;52200;53.490;14.376;2023-03-25T04:11:43;99927.13;;;7.12;91.69
65557;BME280;52200;53.490;14.376;2023-03-25T04:14:12;99928.41;;;6.93;92.58
65557;BME280;52200;53.490;14.376;2023-03-25T04:16:38;99931.53;;;7.03;92.34
65557;BME280;52200;53.490;14.376;2023-03-25T04:19:04;99937.63;;;6.94;92.84
65557;BME280;52200;53.490;14.376;2023-03-25T04:21:30;99935.59;;;6.74;93.77
65557;BME280;52200;53.490;14.376;2023-03-25T04:23:56;99934.59;;;6.80;94.18
65557;BME280;52200;53.490;14.376;2023-03-25T04:26:26;99932.69;;;6.90;94.13
65557;BME280;52200;53.490;14.376;2023-03-25T04:28:51;99939.34;;;6.92;94.01
65557;BME280;52200;53.490;14.376;2023-03-25T04:31:16;99942.13;;;7.18;93.06
65557;BME280;52200;53.490;14.376;2023-03-25T04:33:45;99943.72;;;7.20;92.91
65557;BME280;52200;53.490;14.376;2023-03-25T04:36:14;99940.13;;;7.29;92.39
65557;BME280;52200;53.490;14.376;2023-03-25T04:38:40;99936.50;;;7.39;91.72
65557;BME280;52200;53.490;14.376;2023-03-25T04:41:10;99940.31;;;7.54;90.77
65557;BME280;52200;53.490;14.376;2023-03-25T04:43:36;99939.72;;;7.45;91.39
65557;BME280;52200;53.490;14.376;2023-03-25T04:46:03;99943.34;;;7.67;90.64
65557;BME280;52200;53.490;14.376;2023-03-25T04:48:30;99944.59;;;7.51;91.28
65557;BME280;52200;53.490;14.376;2023-03-25T04:50:58;99945.47;;;7.50;93.76
65557;BME280;52200;53.490;14.376;2023-03-25T04:53:26;99952.88;;;7.56;94.17
65557;BME280;52200;53.490;14.376;2023-03-25T04:55:52;99949.00;;;7.44;95.35
65557;BME280;52200;53.490;14.376;2023-03-25T04:58:18;99939.88;;;7.38;95.97
65557;BME280;52200;53.490;14.376;2023-03-25T05:00:45;99938.91;;;7.44;96.32
65557;BME280;52200;53.490;14.376;2023-03-25T05:03:13;99937.13;;;7.48;96.31
65557;BME280;52200;53.490;14.376;2023-03-25T05:05:40;99941.50;;;7.72;94.93
65557;BME280;52200;53.490;14.376;2023-03-25T05:08:05;99934.28;;;7.58;95.03
65557;BME280;52200;53.490;14.376;2023-03-25T05:10:32;99936.47;;;7.72;95.27
65557;BME280;52200;53.490;14.376;2023-03-25T05:13:04;99936.78;;;7.60;94.98
65557;BME280;52200;53.490;14.376;2023-03-25T05:15:32;99939.38;;;7.57;95.66
65557;BME280;52200;53.490;14.376;2023-03-25T05:18:03;99924.22;;;7.57;95.83
65557;BME280;52200;53.490;14.376;2023-03-25T05:20:30;99919.50;;;7.45;98.03
65557;BME280;52200;53.490;14.376;2023-03-25T05:22:59;99922.56;;;7.56;98.59
65557;BME280;52200;53.490;14.376;2023-03-25T05:25:24;99923.13;;;7.66;98.02
65557;BME280;52200;53.490;14.376;2023-03-25T05:27:50;99922.38;;;7.64;98.75
65557;BME280;52200;53.490;14.376;2023-03-25T05:30:15;99916.28;;;7.39;99.39
65557;BME280;52200;53.490;14.376;2023-03-25T05:32:41;99922.13;;;7.41;99.55
65557;BME280;52200;53.490;14.376;2023-03-25T05:35:09;99916.22;;;7.42;99.76
65557;BME280;52200;53.490;14.376;2023-03-25T05:37:35;99925.19;;;7.53;99.95
65557;BME280;52200;53.490;14.376;2023-03-25T05:40:02;99922.66;;;7.53;100.00
65557;BME280;52200;53.490;14.376;2023-03-25T05:42:28;99925.09;;;7.56;100.00
65557;BME280;52200;53.490;14.376;2023-03-25T05:44:53;99927.38;;;7.65;100.00
65557;BME280;52200;53.490;14.376;2023-03-25T05:47:20;99924.16;;;7.60;100.00
65557;BME280;52200;53.490;14.376;2023-03-25T05:49:51;99923.63;;;7.49;100.00
65557;BME280;52200;53.490;14.376;2023-03-25T05:52:18;99924.72;;;7.70;100.00
65557;BME280;52200;53.490;14.376;2023-03-25T05:54:44;99932.66;;;7.87;99.33
65557;BME280;52200;53.490;14.376;2023-03-25T05:57:11;99927.03;;;7.78;100.00
65557;BME280;52200;53.490;14.376;2023-03-25T05:59:36;99928.41;;;7.88;99.16
65557;BME280;52200;53.490;14.376;2023-03-25T06:02:12;99924.84;;;7.95;99.32
65557;BME280;52200;53.490;14.376;2023-03-25T06:04:37;99925.47;;;7.73;100.00
65557;BME280;52200;53.490;14.376;2023-03-25T06:07:12;99930.38;;;7.80;100.00
65557;BME280;52200;53.490;14.376;2023-03-25T06:09:47;99932.88;;;8.10;100.00
65557;BME280;52200;53.490;14.376;2023-03-25T06:12:17;99935.31;;;8.13;99.82
65557;BME280;52200;53.490;14.376;2023-03-25T06:14:44;99935.78;;;8.26;99.43
65557;BME280;52200;53.490;14.376;2023-03-25T06:17:16;99931.59;;;8.25;99.60
65557;BME280;52200;53.490;14.376;2023-03-25T06:19:43;99939.50;;;8.42;99.26
65557;BME280;52200;53.490;14.376;2023-03-25T06:22:09;99936.81;;;8.75;97.55
65557;BME280;52200;53.490;14.376;2023-03-25T06:24:36;99932.19;;;8.88;96.12
65557;BME280;52200;53.490;14.376;2023-03-25T06:27:02;99930.13;;;8.99;96.17
65557;BME280;52200;53.490;14.376;2023-03-25T06:29:28;99941.91;;;8.74;96.68
65557;BME280;52200;53.490;14.376;2023-03-25T06:31:53;99939.69;;;8.91;96.53
65557;BME280;52200;53.490;14.376;2023-03-25T06:34:19;99939.91;;;8.83;95.97
65557;BME280;52200;53.490;14.376;2023-03-25T06:36:44;99939.84;;;9.12;95.03
65557;BME280;52200;53.490;14.376;2023-03-25T06:39:09;99945.69;;;9.14;94.15
65557;BME280;52200;53.490;14.376;2023-03-25T06:41:35;99948.16;;;9.15;94.32
65557;BME280;52200;53.490;14.376;2023-03-25T06:44:02;99949.69;;;9.21;93.84
65557;BME280;52200;53.490;14.376;2023-03-25T06:46:27;99951.16;;;9.01;94.52
65557;BME280;52200;53.490;14.376;2023-03-25T06:48:53;99947.44;;;8.86;95.52
65557;BME280;52200;53.490;14.376;2023-03-25T06:51:18;99947.50;;;8.85;95.04
65557;BME280;52200;53.490;14.376;2023-03-25T06:53:46;99946.34;;;9.19;94.30
65557;BME280;52200;53.490;14.376;2023-03-25T06:56:11;99937.03;;;9.45;92.72
65557;BME280;52200;53.490;14.376;2023-03-25T06:58:36;99937.47;;;9.07;94.37
65557;BME280;52200;53.490;14.376;2023-03-25T07:01:02;99949.56;;;8.99;93.80
65557;BME280;52200;53.490;14.376;2023-03-25T07:03:31;99943.44;;;9.04;94.81
65557;BME280;52200;53.490;14.376;2023-03-25T07:05:56;99940.78;;;9.34;94.15
65557;BME280;52200;53.490;14.376;2023-03-25T07:08:22;99945.31;;;9.50;92.45
65557;BME280;52200;53.490;14.376;2023-03-25T07:10:48;99945.53;;;9.44;91.64
65557;BME280;52200;53.490;14.376;2023-03-25T07:13:13;99945.88;;;9.58;91.11
65557;BME280;52200;53.490;14.376;2023-03-25T07:15:38;99943.34;;;9.58;89.96
65557;BME280;52200;53.490;14.376;2023-03-25T07:18:04;99941.19;;;9.71;90.25
65557;BME280;52200;53.490;14.376;2023-03-25T07:20:29;99951.88;;;9.79;89.81
65557;BME280;52200;53.490;14.376;2023-03-25T07:22:55;99940.19;;;9.99;88.78
65557;BME280;52200;53.490;14.376;2023-03-25T07:25:21;99958.47;;;10.31;87.96
65557;BME280;52200;53.490;14.376;2023-03-25T07:27:46;99950.06;;;10.29;86.49
65557;BME280;52200;53.490;14.376;2023-03-25T07:30:12;99949.47;;;10.67;85.94
65557;BME280;52200;53.490;14.376;2023-03-25T07:32:37;99947.38;;;10.56;84.97
65557;BME280;52200;53.490;14.376;2023-03-25T07:35:04;99940.56;;;10.78;84.95
65557;BME280;52200;53.490;14.376;2023-03-25T07:37:29;99940.97;;;11.50;83.52
65557;BME280;52200;53.490;14.376;2023-03-25T07:39:54;99945.78;;;11.56;81.51
65557;BME280;52200;53.490;14.376;2023-03-25T07:42:20;99940.81;;;11.53;80.84
65557;BME280;52200;53.490;14.376;2023-03-25T07:44:45;99944.91;;;11.57;80.97
65557;BME280;52200;53.490;14.376;2023-03-25T07:47:10;99946.16;;;11.47;79.82
65557;BME280;52200;53.490;14.376;2023-03-25T07:49:36;99942.59;;;11.11;81.50
65557;BME280;52200;53.490;14.376;2023-03-25T07:52:05;99947.50;;;10.95;81.53
65557;BME280;52200;53.490;14.376;2023-03-25T07:54:30;99961.72;;;11.00;81.27
65557;BME280;52200;53.490;14.376;2023-03-25T07:56:56;99958.25;;;10.80;81.15
65557;BME280;52200;53.490;14.376;2023-03-25T07:59:21;99961.06;;;10.74;81.83
65557;BME280;52200;53.490;14.376;2023-03-25T08:01:47;99956.84;;;10.73;82.06
65557;BME280;52200;53.490;14.376;2023-03-25T08:04:12;99958.66;;;10.71;81.99
65557;BME280;52200;53.490;14.376;2023-03-25T08:06:38;99960.91;;;10.56;81.27
65557;BME280;52200;53.490;14.376;2023-03-25T08:09:04;99958.31;;;10.34;82.00
65557;BME280;52200;53.490;14.376;2023-03-25T08:11:31;99956.91;;;10.71;81.65
65557;BME280;52200;53.490;14.376;2023-03-25T08:13:56;99958.72;;;10.69;82.07
65557;BME280;52200;53.490;14.376;2023-03-25T08:16:21;99955.03;;;10.54;82.73
65557;BME280;52200;53.490;14.376;2023-03-25T08:18:47;99955.94;;;10.29;82.51
65557;BME280;52200;53.490;14.376;2023-03-25T08:21:12;99957.81;;;10.48;83.06
65557;BME280;52200;53.490;14.376;2023-03-25T08:23:38;99960.56;;;10.43;83.36
65557;BME280;52200;53.490;14.376;2023-03-25T08:26:04;99955.63;;;10.83;81.99
65557;BME280;52200;53.490;14.376;2023-03-25T08:28:30;99957.16;;;11.08;80.85
65557;BME280;52200;53.490;14.376;2023-03-25T08:30:56;99961.19;;;10.91;80.98
65557;BME280;52200;53.490;14.376;2023-03-25T08:33:24;99951.59;;;10.77;81.57
65557;BME280;52200;53.490;14.376;2023-03-25T08:36:01;99945.69;;;10.97;80.48
65557;BME280;52200;53.490;14.376;2023-03-25T08:38:27;99949.78;;;11.02;80.47
65557;BME280;52200;53.490;14.376;2023-03-25T08:40:58;99949.72;;;11.24;79.50
65557;BME280;52200;53.490;14.376;2023-03-25T08:43:25;99954.84;;;11.43;78.61
65557;BME280;52200;53.490;14.376;2023-03-25T08:45:50;99950.19;;;11.32;77.93
65557;BME280;52200;53.490;14.376;2023-03-25T08:48:16;99949.84;;;11.21;77.19
65557;BME280;52200;53.490;14.376;2023-03-25T08:50:41;99949.94;;;11.38;77.17
65557;BME280;52200;53.490;14.376;2023-03-25T08:53:07;99944.66;;;11.43;75.62
65557;BME280;52200;53.490;14.376;2023-03-25T08:55:33;99960.16;;;11.57;74.90
65557;BME280;52200;53.490;14.376;2023-03-25T08:58:03;99950.59;;;11.23;75.56
65557;BME280;52200;53.490;14.376;2023-03-25T09:00:30;99961.69;;;11.41;75.96
65557;BME280;52200;53.490;14.376;2023-03-25T09:02:56;99964.78;;;11.68;74.58
65557;BME280;52200;53.490;14.376;2023-03-25T09:05:24;99975.91;;;11.66;74.24
65557;BME280;52200;53.490;14.376;2023-03-25T09:07:49;99961.94;;;11.35;74.84
65557;BME280;52200;53.490;14.376;2023-03-25T09:10:15;99966.53;;;11.87;73.46
65557;BME280;52200;53.490;14.376;2023-03-25T09:12:40;99968.69;;;12.15;73.55
65557;BME280;52200;53.490;14.376;2023-03-25T09:15:07;99959.66;;;12.08;73.79
65557;BME280;52200;53.490;14.376;2023-03-25T09:17:32;99972.41;;;12.08;71.86
65557;BME280;52200;53.490;14.376;2023-03-25T09:19:57;99961.84;;;11.57;74.26
65557;BME280;52200;53.490;14.376;2023-03-25T09:22:23;99972.03;;;10.96;73.84
65557;BME280;52200;53.490;14.376;2023-03-25T09:24:48;99967.44;;;10.84;74.30
65557;BME280;52200;53.490;14.376;2023-03-25T09:27:13;99969.06;;;10.85;75.57
65557;BME280;52200;53.490;14.376;2023-03-25T09:29:39;99981.03;;;10.83;75.63
65557;BME280;52200;53.490;14.376;2023-03-25T09:32:05;99977.88;;;11.19;75.32
65557;BME280;52200;53.490;14.376;2023-03-25T09:34:30;99976.91;;;11.22;74.54
65557;BME280;52200;53.490;14.376;2023-03-25T09:36:56;99976.03;;;11.63;73.59
65557;BME280;52200;53.490;14.376;2023-03-25T09:39:22;99976.66;;;11.68;73.09
65557;BME280;52200;53.490;14.376;2023-03-25T09:42:13;99968.25;;;11.66;73.17
65557;BME280;52200;53.490;14.376;2023-03-25T09:47:56;99969.31;;;11.61;73.11
65557;BME280;52200;53.490;14.376;2023-03-25T09:50:24;99970.31;;;12.16;73.17
65557;BME280;52200;53.490;14.376;2023-03-25T09:52:57;99969.19;;;12.41;72.47
65557;BME280;52200;53.490;14.376;2023-03-25T09:55:31;99981.38;;;12.71;72.72
65557;BME280;52200;53.490;14.376;2023-03-25T09:58:24;99979.69;;;11.97;71.67
65557;BME280;52200;53.490;14.376;2023-03-25T10:00:57;99968.50;;;11.61;72.39
65557;BME280;52200;53.490;14.376;2023-03-25T10:03:29;99974.38;;;11.42;73.11
65557;BME280;52200;53.490;14.376;2023-03-25T10:06:09;99968.53;;;12.18;74.93
65557;BME280;52200;53.490;14.376;2023-03-25T10:11:36;99973.69;;;12.17;70.36
65557;BME280;52200;53.490;14.376;2023-03-25T10:14:11;99966.75;;;12.20;70.31
65557;BME280;52200;53.490;14.376;2023-03-25T10:17:12;99969.63;;;12.13;70.60
65557;BME280;52200;53.490;14.376;2023-03-25T10:22:59;99955.84;;;12.36;68.80
65557;BME280;52200;53.490;14.376;2023-03-25T10:25:31;99953.09;;;12.93;67.32
65557;BME280;52200;53.490;14.376;2023-03-25T10:27:59;99945.47;;;12.93;67.66
65557;BME280;52200;53.490;14.376;2023-03-25T10:30:34;99942.69;;;12.80;67.30
65557;BME280;52200;53.490;14.376;2023-03-25T10:33:15;99935.31;;;13.09;67.62
65557;BME280;52200;53.490;14.376;2023-03-25T10:35:45;99924.94;;;13.47;65.46
65557;BME280;52200;53.490;14.376;2023-03-25T10:38:16;99928.84;;;13.37;65.44
65557;BME280;52200;53.490;14.376;2023-03-25T10:40:45;99927.63;;;13.94;64.99
65557;BME280;52200;53.490;14.376;2023-03-25T10:43:28;99926.75;;;14.41;62.11
65557;BME280;52200;53.490;14.376;2023-03-25T10:48:49;99934.06;;;14.01;62.43
65557;BME280;52200;53.490;14.376;2023-03-25T10:51:17;99924.06;;;13.31;61.42
65557;BME280;52200;53.490;14.376;2023-03-25T10:53:47;99928.97;;;12.65;62.68
65557;BME280;52200;53.490;14.376;2023-03-25T10:56:40;99938.47;;;12.44;63.50
65557;BME280;52200;53.490;14.376;2023-03-25T10:59:18;99933.78;;;12.17;64.26
65557;BME280;52200;53.490;14.376;2023-03-25T11:01:47;99933.16;;;11.74;65.45
65557;BME280;52200;53.490;14.376;2023-03-25T11:04:17;99945.81;;;11.36;71.84
65557;BME280;52200;53.490;14.376;2023-03-25T11:06:46;99944.94;;;10.95;74.15
65557;BME280;52200;53.490;14.376;2023-03-25T11:09:28;99952.19;;;10.84;77.15
65557;BME280;52200;53.490;14.376;2023-03-25T11:12:03;99947.22;;;10.81;77.80
65557;BME280;52200;53.490;14.376;2023-03-25T11:14:29;99948.59;;;11.50;77.94
65557;BME280;52200;53.490;14.376;2023-03-25T11:17:02;99945.69;;;11.98;76.30
65557;BME280;52200;53.490;14.376;2023-03-25T11:19:38;99941.56;;;12.14;74.64
65557;BME280;52200;53.490;14.376;2023-03-25T11:22:18;99934.94;;;12.10;74.32
65557;BME280;52200;53.490;14.376;2023-03-25T11:24:49;99938.91;;;12.35;75.43
65557;BME280;52200;53.490;14.376;2023-03-25T11:27:21;99930.22;;;13.09;73.08
65557;BME280;52200;53.490;14.376;2023-03-25T11:30:15;99927.41;;;13.31;72.65
65557;BME280;52200;53.490;14.376;2023-03-25T11:32:41;99920.28;;;13.88;71.42
65557;BME280;52200;53.490;14.376;2023-03-25T11:35:15;99919.16;;;14.40;69.06
65557;BME280;52200;53.490;14.376;2023-03-25T11:37:47;99920.69;;;14.12;67.72
65557;BME280;52200;53.490;14.376;2023-03-25T11:40:15;99911.97;;;14.46;67.63
65557;BME280;52200;53.490;14.376;2023-03-25T11:42:43;99918.63;;;14.65;66.75
65557;BME280;52200;53.490;14.376;2023-03-25T11:45:39;99914.16;;;13.58;63.69
65557;BME280;52200;53.490;14.376;2023-03-25T11:48:18;99911.69;;;12.89;64.33
65557;BME280;52200;53.490;14.376;2023-03-25T11:50:57;99896.94;;;13.46;64.49
65557;BME280;52200;53.490;14.376;2023-03-25T11:53:26;99890.34;;;14.22;64.04
65557;BME280;52200;53.490;14.376;2023-03-25T11:55:55;99884.94;;;13.96;63.94
65557;BME280;52200;53.490;14.376;2023-03-25T11:58:27;99892.84;;;13.43;63.82
65557;BME280;52200;53.490;14.376;2023-03-25T12:01:03;99901.56;;;13.71;64.99
65557;BME280;52200;53.490;14.376;2023-03-25T12:03:31;99889.88;;;13.67;63.90
65557;BME280;52200;53.490;14.376;2023-03-25T12:08:55;99898.38;;;13.83;65.30
65557;BME280;52200;53.490;14.376;2023-03-25T12:19:50;99913.59;;;11.55;75.44
65557;BME280;52200;53.490;14.376;2023-03-25T12:22:21;99920.22;;;11.78;76.41
65557;BME280;52200;53.490;14.376;2023-03-25T12:25:11;99913.47;;;12.16;78.86
65557;BME280;52200;53.490;14.376;2023-03-25T12:28:04;99905.34;;;12.27;76.34
65557;BME280;52200;53.490;14.376;2023-03-25T12:33:18;99900.09;;;12.30;74.56
65557;BME280;52200;53.490;14.376;2023-03-25T12:41:37;99888.34;;;12.45;71.73
65557;BME280;52200;53.490;14.376;2023-03-25T12:47:01;99884.84;;;12.65;70.82
65557;BME280;52200;53.490;14.376;2023-03-25T13:05:16;99868.25;;;13.58;66.27
65557;BME280;52200;53.490;14.376;2023-03-25T13:07:50;99880.31;;;13.38;66.19
65557;BME280;52200;53.490;14.376;2023-03-25T13:10:22;99905.16;;;12.49;67.91
65557;BME280;52200;53.490;14.376;2023-03-25T13:12:57;99894.41;;;11.48;70.28
65557;BME280;52200;53.490;14.376;2023-03-25T13:15:27;99896.56;;;10.78;76.03
65557;BME280;52200;53.490;14.376;2023-03-25T13:18:02;99897.88;;;9.99;79.91
65557;BME280;52200;53.490;14.376;2023-03-25T13:20:35;99904.34;;;9.84;80.53
65557;BME280;52200;53.490;14.376;2023-03-25T13:23:04;99919.03;;;9.98;82.56
65557;BME280;52200;53.490;14.376;2023-03-25T13:25:45;99921.44;;;9.79;83.06
65557;BME280;52200;53.490;14.376;2023-03-25T13:28:17;99932.53;;;9.77;85.23
65557;BME280;52200;53.490;14.376;2023-03-25T13:30:49;99942.00;;;9.95;84.02
65557;BME280;52200;53.490;14.376;2023-03-25T13:33:18;99939.16;;;9.81;83.83
65557;BME280;52200;53.490;14.376;2023-03-25T13:35:48;99943.66;;;8.98;86.37
65557;BME280;52200;53.490;14.376;2023-03-25T13:38:25;99908.19;;;8.73;88.64
65557;BME280;52200;53.490;14.376;2023-03-25T13:44:03;99895.44;;;10.42;88.18
65557;BME280;52200;53.490;14.376;2023-03-25T13:46:50;99890.97;;;10.90;84.72
65557;BME280;52200;53.490;14.376;2023-03-25T13:49:26;99884.06;;;10.92;82.71
65557;BME280;52200;53.490;14.376;2023-03-25T13:51:54;99886.59;;;11.53;81.43
65557;BME280;52200;53.490;14.376;2023-03-25T13:54:30;99881.84;;;11.83;80.38
65557;BME280;52200;53.490;14.376;2023-03-25T14:13:38;99872.13;;;12.11;76.67
65557;BME280;52200;53.490;14.376;2023-03-25T14:16:07;99868.56;;;11.96;78.15
65557;BME280;52200;53.490;14.376;2023-03-25T14:18:41;99884.84;;;11.91;80.00
65557;BME280;52200;53.490;14.376;2023-03-25T14:21:20;99880.88;;;11.67;79.24
65557;BME280;52200;53.490;14.376;2023-03-25T14:24:09;99898.88;;;11.24;80.50
65557;BME280;52200;53.490;14.376;2023-03-25T14:26:41;99917.75;;;11.18;82.02
65557;BME280;52200;53.490;14.376;2023-03-25T14:29:17;99934.53;;;10.14;79.07
65557;BME280;52200;53.490;14.376;2023-03-25T14:34:42;99959.69;;;8.99;80.36
65557;BME280;52200;53.490;14.376;2023-03-25T14:37:26;99959.63;;;8.75;82.04
65557;BME280;52200;53.490;14.376;2023-03-25T14:39:58;99957.50;;;8.61;81.98
65557;BME280;52200;53.490;14.376;2023-03-25T14:45:49;99964.31;;;8.01;88.07
65557;BME280;52200;53.490;14.376;2023-03-25T14:48:26;99960.94;;;8.02;89.60
65557;BME280;52200;53.490;14.376;2023-03-25T14:53:39;99964.09;;;8.09;90.14
65557;BME280;52200;53.490;14.376;2023-03-25T14:56:07;99960.75;;;8.36;90.15
65557;BME280;52200;53.490;14.376;2023-03-25T14:58:39;99960.06;;;8.60;89.54